sensor_id;sensor_type;location;lat;lon;timestamp;P1;durP1;ratioP1;P2;durP2;ratioP2
11943;SDS011;6031;50.220;10.122;2023-07-20T00:00:51;8.67;;;3.90;;
11943;SDS011;6031;50.220;10.122;2023-07-20T00:03:19;7.40;;;4.10;;
11943;SDS011;6031;50.220;10.122;2023-07-20T00:05:48;5.87;;;4.10;;
11943;SDS011;6031;50.220;10.122;2023-07-20T00:08:14;7.57;;;4.67;;
11943;SDS011;6031;50.220;10.122;2023-07-20T00:10:40;10.57;;;4.30;;
11943;SDS011;6031;50.220;10.122;2023-07-20T00:13:06;10.23;;;4.43;;
11943;SDS011;6031;50.220;10.122;2023-07-20T00:15:32;11.10;;;4.20;;
11943;SDS011;6031;50.220;10.122;2023-07-20T00:17:57;4.17;;;3.63;;
11943;SDS011;6031;50.220;10.122;2023-07-20T00:20:23;9.50;;;4.20;;
11943;SDS011;6031;50.220;10.122;2023-07-20T00:22:50;4.77;;;4.37;;
11943;SDS011;6031;50.220;10.122;2023-07-20T00:25:19;7.47;;;4.13;;
11943;SDS011;6031;50.220;10.122;2023-07-20T00:27:45;16.70;;;4.43;;
11943;SDS011;6031;50.220;10.122;2023-07-20T00:30:11;5.63;;;3.70;;
11943;SDS011;6031;50.220;10.122;2023-07-20T00:32:37;4.80;;;4.30;;
11943;SDS011;6031;50.220;10.122;2023-07-20T00:35:02;10.80;;;3.77;;
11943;SDS011;6031;50.220;10.122;2023-07-20T00:37:28;5.80;;;3.40;;
11943;SDS011;6031;50.220;10.122;2023-07-20T00:39:54;7.30;;;4.10;;
11943;SDS011;6031;50.220;10.122;2023-07-20T00:42:19;6.43;;;3.67;;
11943;SDS011;6031;50.220;10.122;2023-07-20T00:44:45;6.27;;;3.80;;
11943;SDS011;6031;50.220;10.122;2023-07-20T00:47:10;9.77;;;4.40;;
11943;SDS011;6031;50.220;10.122;2023-07-20T00:49:36;7.77;;;4.33;;
11943;SDS011;6031;50.220;10.122;2023-07-20T00:52:02;9.70;;;4.37;;
11943;SDS011;6031;50.220;10.122;2023-07-20T00:54:31;5.57;;;3.60;;
11943;SDS011;6031;50.220;10.122;2023-07-20T00:56:57;8.77;;;3.53;;
11943;SDS011;6031;50.220;10.122;2023-07-20T00:59:23;6.30;;;3.20;;
11943;SDS011;6031;50.220;10.122;2023-07-20T01:01:49;3.40;;;3.20;;
11943;SDS011;6031;50.220;10.122;2023-07-20T01:04:14;9.50;;;4.37;;
11943;SDS011;6031;50.220;10.122;2023-07-20T01:09:13;5.93;;;3.93;;
11943;SDS011;6031;50.220;10.122;2023-07-20T01:11:56;6.13;;;3.53;;
11943;SDS011;6031;50.220;10.122;2023-07-20T01:14:23;6.83;;;3.27;;
11943;SDS011;6031;50.220;10.122;2023-07-20T01:16:50;6.83;;;3.80;;
11943;SDS011;6031;50.220;10.122;2023-07-20T01:19:17;3.87;;;3.30;;
11943;SDS011;6031;50.220;10.122;2023-07-20T01:32:56;10.03;;;3.50;;
11943;SDS011;6031;50.220;10.122;2023-07-20T01:35:24;7.60;;;3.47;;
11943;SDS011;6031;50.220;10.122;2023-07-20T01:37:54;9.07;;;4.10;;
11943;SDS011;6031;50.220;10.122;2023-07-20T01:40:20;6.17;;;3.50;;
11943;SDS011;6031;50.220;10.122;2023-07-20T01:42:47;7.43;;;3.83;;
11943;SDS011;6031;50.220;10.122;2023-07-20T01:45:13;6.17;;;3.40;;
11943;SDS011;6031;50.220;10.122;2023-07-20T01:47:38;7.67;;;3.57;;
11943;SDS011;6031;50.220;10.122;2023-07-20T01:50:04;5.77;;;3.57;;
11943;SDS011;6031;50.220;10.122;2023-07-20T01:52:31;7.67;;;3.83;;
11943;SDS011;6031;50.220;10.122;2023-07-20T01:54:57;5.00;;;3.77;;
11943;SDS011;6031;50.220;10.122;2023-07-20T01:57:22;7.37;;;4.37;;
11943;SDS011;6031;50.220;10.122;2023-07-20T01:59:48;7.43;;;3.60;;
11943;SDS011;6031;50.220;10.122;2023-07-20T02:02:13;3.47;;;3.17;;
11943;SDS011;6031;50.220;10.122;2023-07-20T02:04:39;4.63;;;3.10;;
11943;SDS011;6031;50.220;10.122;2023-07-20T02:07:04;5.43;;;3.57;;
11943;SDS011;6031;50.220;10.122;2023-07-20T02:09:30;6.77;;;3.37;;
11943;SDS011;6031;50.220;10.122;2023-07-20T02:11:55;6.20;;;3.43;;
11943;SDS011;6031;50.220;10.122;2023-07-20T02:14:21;9.37;;;3.13;;
11943;SDS011;6031;50.220;10.122;2023-07-20T02:16:47;5.70;;;3.50;;
11943;SDS011;6031;50.220;10.122;2023-07-20T02:19:16;6.50;;;3.43;;
11943;SDS011;6031;50.220;10.122;2023-07-20T02:21:42;7.40;;;3.10;;
11943;SDS011;6031;50.220;10.122;2023-07-20T02:24:07;5.57;;;4.17;;
11943;SDS011;6031;50.220;10.122;2023-07-20T02:26:33;4.20;;;3.23;;
11943;SDS011;6031;50.220;10.122;2023-07-20T02:28:58;5.70;;;2.90;;
11943;SDS011;6031;50.220;10.122;2023-07-20T02:31:24;6.80;;;3.40;;
11943;SDS011;6031;50.220;10.122;2023-07-20T02:33:49;4.70;;;3.47;;
11943;SDS011;6031;50.220;10.122;2023-07-20T02:36:15;4.50;;;3.43;;
11943;SDS011;6031;50.220;10.122;2023-07-20T02:38:41;4.67;;;3.33;;
11943;SDS011;6031;50.220;10.122;2023-07-20T02:41:07;5.73;;;4.10;;
11943;SDS011;6031;50.220;10.122;2023-07-20T02:43:33;7.93;;;3.10;;
11943;SDS011;6031;50.220;10.122;2023-07-20T02:45:58;4.13;;;2.90;;
11943;SDS011;6031;50.220;10.122;2023-07-20T02:48:24;8.73;;;3.57;;
11943;SDS011;6031;50.220;10.122;2023-07-20T02:50:49;4.93;;;4.13;;
11943;SDS011;6031;50.220;10.122;2023-07-20T02:53:15;7.80;;;3.47;;
11943;SDS011;6031;50.220;10.122;2023-07-20T02:55:40;7.37;;;3.80;;
11943;SDS011;6031;50.220;10.122;2023-07-20T02:58:06;5.43;;;3.63;;
11943;SDS011;6031;50.220;10.122;2023-07-20T03:00:32;6.30;;;3.60;;
11943;SDS011;6031;50.220;10.122;2023-07-20T03:02:58;9.37;;;3.27;;
11943;SDS011;6031;50.220;10.122;2023-07-20T03:05:23;8.80;;;3.60;;
11943;SDS011;6031;50.220;10.122;2023-07-20T03:07:52;5.67;;;3.63;;
11943;SDS011;6031;50.220;10.122;2023-07-20T03:10:18;8.77;;;4.30;;
11943;SDS011;6031;50.220;10.122;2023-07-20T03:12:44;5.23;;;3.20;;
11943;SDS011;6031;50.220;10.122;2023-07-20T03:15:09;3.97;;;3.07;;
11943;SDS011;6031;50.220;10.122;2023-07-20T03:17:35;5.17;;;3.13;;
11943;SDS011;6031;50.220;10.122;2023-07-20T03:20:00;7.20;;;3.90;;
11943;SDS011;6031;50.220;10.122;2023-07-20T03:22:26;5.63;;;3.60;;
11943;SDS011;6031;50.220;10.122;2023-07-20T03:24:52;3.80;;;3.40;;
11943;SDS011;6031;50.220;10.122;2023-07-20T03:27:18;4.93;;;3.40;;
11943;SDS011;6031;50.220;10.122;2023-07-20T03:29:43;5.47;;;3.40;;
11943;SDS011;6031;50.220;10.122;2023-07-20T03:32:09;5.30;;;3.43;;
11943;SDS011;6031;50.220;10.122;2023-07-20T03:34:35;4.70;;;3.27;;
11943;SDS011;6031;50.220;10.122;2023-07-20T03:37:00;4.70;;;3.30;;
11943;SDS011;6031;50.220;10.122;2023-07-20T03:39:26;5.83;;;3.17;;
11943;SDS011;6031;50.220;10.122;2023-07-20T03:41:52;4.70;;;4.03;;
11943;SDS011;6031;50.220;10.122;2023-07-20T03:44:17;4.77;;;3.47;;
11943;SDS011;6031;50.220;10.122;2023-07-20T03:46:43;6.00;;;3.27;;
11943;SDS011;6031;50.220;10.122;2023-07-20T03:49:09;4.60;;;3.30;;
11943;SDS011;6031;50.220;10.122;2023-07-20T03:51:35;4.73;;;2.90;;
11943;SDS011;6031;50.220;10.122;2023-07-20T03:54:01;3.63;;;2.77;;
11943;SDS011;6031;50.220;10.122;2023-07-20T03:56:27;6.80;;;4.17;;
11943;SDS011;6031;50.220;10.122;2023-07-20T03:58:52;5.30;;;3.33;;
11943;SDS011;6031;50.220;10.122;2023-07-20T04:01:18;3.40;;;3.10;;
11943;SDS011;6031;50.220;10.122;2023-07-20T04:03:43;9.37;;;3.97;;
11943;SDS011;6031;50.220;10.122;2023-07-20T04:06:10;4.10;;;3.60;;
11943;SDS011;6031;50.220;10.122;2023-07-20T04:08:35;4.03;;;3.57;;
11943;SDS011;6031;50.220;10.122;2023-07-20T04:11:02;3.60;;;3.30;;
11943;SDS011;6031;50.220;10.122;2023-07-20T04:13:28;9.17;;;3.57;;
11943;SDS011;6031;50.220;10.122;2023-07-20T04:15:53;4.87;;;3.30;;
11943;SDS011;6031;50.220;10.122;2023-07-20T04:18:20;3.37;;;3.07;;
11943;SDS011;6031;50.220;10.122;2023-07-20T04:20:45;5.23;;;3.10;;
11943;SDS011;6031;50.220;10.122;2023-07-20T04:23:11;5.87;;;3.13;;
11943;SDS011;6031;50.220;10.122;2023-07-20T04:25:38;4.47;;;3.83;;
11943;SDS011;6031;50.220;10.122;2023-07-20T04:28:08;5.67;;;4.00;;
11943;SDS011;6031;50.220;10.122;2023-07-20T04:30:34;6.43;;;3.37;;
11943;SDS011;6031;50.220;10.122;2023-07-20T04:33:04;3.80;;;3.50;;
11943;SDS011;6031;50.220;10.122;2023-07-20T04:35:49;5.77;;;3.73;;
11943;SDS011;6031;50.220;10.122;2023-07-20T04:38:16;4.47;;;3.47;;
11943;SDS011;6031;50.220;10.122;2023-07-20T04:40:42;4.03;;;3.13;;
11943;SDS011;6031;50.220;10.122;2023-07-20T04:43:13;7.80;;;3.07;;
11943;SDS011;6031;50.220;10.122;2023-07-20T04:45:42;4.20;;;3.50;;
11943;SDS011;6031;50.220;10.122;2023-07-20T04:48:11;3.53;;;3.23;;
11943;SDS011;6031;50.220;10.122;2023-07-20T04:50:40;4.43;;;3.60;;
11943;SDS011;6031;50.220;10.122;2023-07-20T04:53:07;6.57;;;3.60;;
11943;SDS011;6031;50.220;10.122;2023-07-20T04:55:35;3.50;;;3.20;;
11943;SDS011;6031;50.220;10.122;2023-07-20T04:58:02;6.90;;;4.30;;
11943;SDS011;6031;50.220;10.122;2023-07-20T05:00:28;6.10;;;3.63;;
11943;SDS011;6031;50.220;10.122;2023-07-20T05:02:54;6.50;;;4.00;;
11943;SDS011;6031;50.220;10.122;2023-07-20T05:05:20;7.50;;;4.10;;
11943;SDS011;6031;50.220;10.122;2023-07-20T05:07:46;6.87;;;3.90;;
11943;SDS011;6031;50.220;10.122;2023-07-20T05:10:12;5.47;;;4.20;;
11943;SDS011;6031;50.220;10.122;2023-07-20T05:12:37;5.10;;;3.67;;
11943;SDS011;6031;50.220;10.122;2023-07-20T05:15:03;5.70;;;3.40;;
11943;SDS011;6031;50.220;10.122;2023-07-20T05:17:29;7.60;;;3.30;;
11943;SDS011;6031;50.220;10.122;2023-07-20T05:19:55;6.70;;;3.63;;
11943;SDS011;6031;50.220;10.122;2023-07-20T05:22:20;5.90;;;3.73;;
11943;SDS011;6031;50.220;10.122;2023-07-20T05:24:46;4.97;;;3.50;;
11943;SDS011;6031;50.220;10.122;2023-07-20T05:27:11;5.00;;;4.27;;
11943;SDS011;6031;50.220;10.122;2023-07-20T05:29:37;9.47;;;4.40;;
11943;SDS011;6031;50.220;10.122;2023-07-20T05:32:02;7.83;;;4.13;;
11943;SDS011;6031;50.220;10.122;2023-07-20T05:34:28;5.23;;;3.97;;
11943;SDS011;6031;50.220;10.122;2023-07-20T05:36:54;4.07;;;3.37;;
11943;SDS011;6031;50.220;10.122;2023-07-20T05:39:20;4.90;;;4.17;;
11943;SDS011;6031;50.220;10.122;2023-07-20T05:41:45;8.10;;;3.27;;
11943;SDS011;6031;50.220;10.122;2023-07-20T05:44:11;5.07;;;3.90;;
11943;SDS011;6031;50.220;10.122;2023-07-20T05:46:37;4.40;;;4.00;;
11943;SDS011;6031;50.220;10.122;2023-07-20T05:49:02;5.43;;;4.10;;
11943;SDS011;6031;50.220;10.122;2023-07-20T05:51:28;4.90;;;4.30;;
11943;SDS011;6031;50.220;10.122;2023-07-20T05:53:53;3.77;;;3.37;;
11943;SDS011;6031;50.220;10.122;2023-07-20T05:56:19;4.03;;;3.63;;
11943;SDS011;6031;50.220;10.122;2023-07-20T05:58:45;4.97;;;3.30;;
11943;SDS011;6031;50.220;10.122;2023-07-20T06:01:10;3.70;;;3.40;;
11943;SDS011;6031;50.220;10.122;2023-07-20T06:03:36;3.80;;;3.07;;
11943;SDS011;6031;50.220;10.122;2023-07-20T06:06:02;4.43;;;3.57;;
11943;SDS011;6031;50.220;10.122;2023-07-20T06:08:29;3.30;;;3.00;;
11943;SDS011;6031;50.220;10.122;2023-07-20T06:10:55;3.20;;;3.00;;
11943;SDS011;6031;50.220;10.122;2023-07-20T06:13:21;3.83;;;3.03;;
11943;SDS011;6031;50.220;10.122;2023-07-20T06:15:47;4.13;;;3.20;;
11943;SDS011;6031;50.220;10.122;2023-07-20T06:18:12;2.57;;;2.37;;
11943;SDS011;6031;50.220;10.122;2023-07-20T06:20:38;3.07;;;2.50;;
11943;SDS011;6031;50.220;10.122;2023-07-20T06:23:04;3.53;;;2.77;;
11943;SDS011;6031;50.220;10.122;2023-07-20T06:25:30;3.70;;;2.80;;
11943;SDS011;6031;50.220;10.122;2023-07-20T06:27:55;2.70;;;2.50;;
11943;SDS011;6031;50.220;10.122;2023-07-20T06:30:21;3.00;;;2.80;;
11943;SDS011;6031;50.220;10.122;2023-07-20T06:32:47;3.08;;;2.58;;
11943;SDS011;6031;50.220;10.122;2023-07-20T06:35:13;3.20;;;2.50;;
11943;SDS011;6031;50.220;10.122;2023-07-20T06:37:39;3.88;;;2.25;;
11943;SDS011;6031;50.220;10.122;2023-07-20T06:40:04;3.45;;;2.50;;
11943;SDS011;6031;50.220;10.122;2023-07-20T06:42:31;2.55;;;2.15;;
11943;SDS011;6031;50.220;10.122;2023-07-20T06:44:57;3.45;;;2.80;;
11943;SDS011;6031;50.220;10.122;2023-07-20T06:47:23;3.03;;;2.72;;
11943;SDS011;6031;50.220;10.122;2023-07-20T06:49:48;3.22;;;2.25;;
11943;SDS011;6031;50.220;10.122;2023-07-20T06:52:14;9.13;;;2.22;;
11943;SDS011;6031;50.220;10.122;2023-07-20T06:54:40;5.38;;;2.50;;
11943;SDS011;6031;50.220;10.122;2023-07-20T06:57:05;5.72;;;2.45;;
11943;SDS011;6031;50.220;10.122;2023-07-20T06:59:31;2.75;;;2.30;;
11943;SDS011;6031;50.220;10.122;2023-07-20T07:01:58;4.30;;;2.08;;
11943;SDS011;6031;50.220;10.122;2023-07-20T07:04:23;5.03;;;2.10;;
11943;SDS011;6031;50.220;10.122;2023-07-20T07:06:49;3.83;;;2.47;;
11943;SDS011;6031;50.220;10.122;2023-07-20T07:09:14;3.47;;;2.37;;
11943;SDS011;6031;50.220;10.122;2023-07-20T07:11:40;2.97;;;2.23;;
11943;SDS011;6031;50.220;10.122;2023-07-20T07:14:05;2.90;;;2.47;;
11943;SDS011;6031;50.220;10.122;2023-07-20T07:16:31;4.90;;;2.20;;
11943;SDS011;6031;50.220;10.122;2023-07-20T07:18:56;1.80;;;1.70;;
11943;SDS011;6031;50.220;10.122;2023-07-20T07:21:22;2.83;;;2.30;;
11943;SDS011;6031;50.220;10.122;2023-07-20T07:23:47;2.35;;;2.17;;
11943;SDS011;6031;50.220;10.122;2023-07-20T07:26:13;3.00;;;2.07;;
11943;SDS011;6031;50.220;10.122;2023-07-20T07:28:38;2.23;;;2.03;;
11943;SDS011;6031;50.220;10.122;2023-07-20T07:31:04;8.40;;;2.90;;
11943;SDS011;6031;50.220;10.122;2023-07-20T07:33:33;3.97;;;2.33;;
11943;SDS011;6031;50.220;10.122;2023-07-20T07:35:59;2.47;;;1.90;;
11943;SDS011;6031;50.220;10.122;2023-07-20T07:38:25;3.10;;;1.97;;
11943;SDS011;6031;50.220;10.122;2023-07-20T07:40:50;3.83;;;2.07;;
11943;SDS011;6031;50.220;10.122;2023-07-20T07:43:16;3.37;;;2.57;;
11943;SDS011;6031;50.220;10.122;2023-07-20T07:45:41;4.00;;;1.77;;
11943;SDS011;6031;50.220;10.122;2023-07-20T07:48:07;3.60;;;3.30;;
11943;SDS011;6031;50.220;10.122;2023-07-20T07:50:36;1.80;;;1.70;;
11943;SDS011;6031;50.220;10.122;2023-07-20T07:53:02;2.27;;;2.17;;
11943;SDS011;6031;50.220;10.122;2023-07-20T07:55:28;2.87;;;2.03;;
11943;SDS011;6031;50.220;10.122;2023-07-20T07:57:53;3.97;;;2.00;;
11943;SDS011;6031;50.220;10.122;2023-07-20T08:00:19;2.60;;;1.87;;
11943;SDS011;6031;50.220;10.122;2023-07-20T08:02:45;2.10;;;1.90;;
11943;SDS011;6031;50.220;10.122;2023-07-20T08:05:13;1.90;;;1.80;;
11943;SDS011;6031;50.220;10.122;2023-07-20T08:07:38;4.63;;;2.37;;
11943;SDS011;6031;50.220;10.122;2023-07-20T08:10:04;4.57;;;3.20;;
11943;SDS011;6031;50.220;10.122;2023-07-20T08:12:31;3.70;;;2.40;;
11943;SDS011;6031;50.220;10.122;2023-07-20T08:14:57;3.30;;;2.40;;
11943;SDS011;6031;50.220;10.122;2023-07-20T08:17:22;2.40;;;2.20;;
11943;SDS011;6031;50.220;10.122;2023-07-20T08:19:48;2.50;;;2.07;;
11943;SDS011;6031;50.220;10.122;2023-07-20T08:22:13;2.80;;;2.10;;
11943;SDS011;6031;50.220;10.122;2023-07-20T08:24:39;3.00;;;2.33;;
11943;SDS011;6031;50.220;10.122;2023-07-20T08:27:06;2.10;;;2.00;;
11943;SDS011;6031;50.220;10.122;2023-07-20T08:29:32;2.10;;;2.00;;
11943;SDS011;6031;50.220;10.122;2023-07-20T08:31:57;2.43;;;2.23;;
11943;SDS011;6031;50.220;10.122;2023-07-20T08:34:23;3.87;;;2.30;;
11943;SDS011;6031;50.220;10.122;2023-07-20T08:36:48;3.57;;;2.50;;
11943;SDS011;6031;50.220;10.122;2023-07-20T08:39:14;1.90;;;1.80;;
11943;SDS011;6031;50.220;10.122;2023-07-20T08:41:40;2.40;;;2.20;;
11943;SDS011;6031;50.220;10.122;2023-07-20T08:44:08;2.63;;;2.43;;
11943;SDS011;6031;50.220;10.122;2023-07-20T08:46:34;4.05;;;1.98;;
11943;SDS011;6031;50.220;10.122;2023-07-20T08:49:02;2.58;;;2.33;;
11943;SDS011;6031;50.220;10.122;2023-07-20T08:51:29;4.17;;;2.97;;
11943;SDS011;6031;50.220;10.122;2023-07-20T08:53:55;2.43;;;2.23;;
11943;SDS011;6031;50.220;10.122;2023-07-20T08:56:21;2.47;;;2.27;;
11943;SDS011;6031;50.220;10.122;2023-07-20T08:58:49;2.80;;;2.60;;
11943;SDS011;6031;50.220;10.122;2023-07-20T09:01:17;2.93;;;2.67;;
11943;SDS011;6031;50.220;10.122;2023-07-20T09:03:43;3.60;;;2.47;;
11943;SDS011;6031;50.220;10.122;2023-07-20T09:06:10;3.23;;;2.70;;
11943;SDS011;6031;50.220;10.122;2023-07-20T09:08:39;3.10;;;2.83;;
11943;SDS011;6031;50.220;10.122;2023-07-20T09:11:05;2.53;;;2.30;;
11943;SDS011;6031;50.220;10.122;2023-07-20T09:13:34;5.33;;;2.90;;
11943;SDS011;6031;50.220;10.122;2023-07-20T09:16:00;3.13;;;2.83;;
11943;SDS011;6031;50.220;10.122;2023-07-20T09:18:26;3.03;;;2.70;;
11943;SDS011;6031;50.220;10.122;2023-07-20T09:20:53;3.33;;;2.87;;
11943;SDS011;6031;50.220;10.122;2023-07-20T09:23:31;3.20;;;2.80;;
11943;SDS011;6031;50.220;10.122;2023-07-20T09:26:00;2.87;;;2.77;;
11943;SDS011;6031;50.220;10.122;2023-07-20T09:28:37;2.60;;;2.40;;
11943;SDS011;6031;50.220;10.122;2023-07-20T09:31:15;2.77;;;2.27;;
11943;SDS011;6031;50.220;10.122;2023-07-20T09:33:47;2.70;;;2.30;;
11943;SDS011;6031;50.220;10.122;2023-07-20T09:36:13;3.03;;;2.60;;
11943;SDS011;6031;50.220;10.122;2023-07-20T09:38:40;2.50;;;2.30;;
11943;SDS011;6031;50.220;10.122;2023-07-20T09:41:07;3.53;;;2.50;;
11943;SDS011;6031;50.220;10.122;2023-07-20T09:43:36;3.23;;;2.37;;
11943;SDS011;6031;50.220;10.122;2023-07-20T09:46:02;3.10;;;2.33;;
11943;SDS011;6031;50.220;10.122;2023-07-20T09:48:27;2.07;;;1.97;;
11943;SDS011;6031;50.220;10.122;2023-07-20T09:50:55;3.27;;;2.07;;
11943;SDS011;6031;50.220;10.122;2023-07-20T09:53:21;2.33;;;2.13;;
11943;SDS011;6031;50.220;10.122;2023-07-20T09:55:50;2.70;;;2.50;;
11943;SDS011;6031;50.220;10.122;2023-07-20T09:58:17;2.57;;;2.37;;
11943;SDS011;6031;50.220;10.122;2023-07-20T10:00:43;1.87;;;1.77;;
11943;SDS011;6031;50.220;10.122;2023-07-20T10:03:13;1.97;;;1.87;;
11943;SDS011;6031;50.220;10.122;2023-07-20T10:05:43;2.13;;;1.93;;
11943;SDS011;6031;50.220;10.122;2023-07-20T10:08:13;2.47;;;2.00;;
11943;SDS011;6031;50.220;10.122;2023-07-20T10:10:41;2.40;;;1.67;;
11943;SDS011;6031;50.220;10.122;2023-07-20T10:13:12;2.00;;;1.70;;
11943;SDS011;6031;50.220;10.122;2023-07-20T10:15:50;2.40;;;2.20;;
11943;SDS011;6031;50.220;10.122;2023-07-20T10:21:05;3.63;;;1.97;;
11943;SDS011;6031;50.220;10.122;2023-07-20T10:23:33;2.47;;;1.90;;
11943;SDS011;6031;50.220;10.122;2023-07-20T10:25:59;2.07;;;1.87;;
11943;SDS011;6031;50.220;10.122;2023-07-20T10:28:26;3.43;;;2.00;;
11943;SDS011;6031;50.220;10.122;2023-07-20T10:30:52;1.60;;;1.50;;
11943;SDS011;6031;50.220;10.122;2023-07-20T10:33:18;6.03;;;2.17;;
11943;SDS011;6031;50.220;10.122;2023-07-20T10:35:51;1.80;;;1.53;;
11943;SDS011;6031;50.220;10.122;2023-07-20T10:38:17;2.27;;;1.87;;
11943;SDS011;6031;50.220;10.122;2023-07-20T10:40:42;1.93;;;1.83;;
11943;SDS011;6031;50.220;10.122;2023-07-20T10:43:18;2.00;;;1.67;;
11943;SDS011;6031;50.220;10.122;2023-07-20T10:45:51;1.77;;;1.53;;
11943;SDS011;6031;50.220;10.122;2023-07-20T10:48:19;2.00;;;1.83;;
11943;SDS011;6031;50.220;10.122;2023-07-20T10:51:11;2.43;;;2.23;;
11943;SDS011;6031;50.220;10.122;2023-07-20T10:53:35;2.00;;;1.73;;
11943;SDS011;6031;50.220;10.122;2023-07-20T10:58:40;1.83;;;1.73;;
11943;SDS011;6031;50.220;10.122;2023-07-20T11:01:07;2.95;;;1.75;;
11943;SDS011;6031;50.220;10.122;2023-07-20T11:03:34;2.80;;;1.65;;
11943;SDS011;6031;50.220;10.122;2023-07-20T11:06:29;2.35;;;1.58;;
11943;SDS011;6031;50.220;10.122;2023-07-20T11:09:02;2.13;;;1.93;;
11943;SDS011;6031;50.220;10.122;2023-07-20T11:11:46;2.67;;;1.90;;
11943;SDS011;6031;50.220;10.122;2023-07-20T11:14:22;2.40;;;1.97;;
11943;SDS011;6031;50.220;10.122;2023-07-20T11:16:49;2.93;;;1.93;;
11943;SDS011;6031;50.220;10.122;2023-07-20T11:19:25;2.73;;;1.67;;
11943;SDS011;6031;50.220;10.122;2023-07-20T11:21:51;3.00;;;2.80;;
11943;SDS011;6031;50.220;10.122;2023-07-20T11:24:18;1.83;;;1.63;;
11943;SDS011;6031;50.220;10.122;2023-07-20T11:26:48;1.67;;;1.58;;
11943;SDS011;6031;50.220;10.122;2023-07-20T11:29:18;1.77;;;1.63;;
11943;SDS011;6031;50.220;10.122;2023-07-20T11:31:48;3.35;;;1.88;;
11943;SDS011;6031;50.220;10.122;2023-07-20T11:34:15;2.13;;;1.92;;
11943;SDS011;6031;50.220;10.122;2023-07-20T11:36:42;5.18;;;2.00;;
11943;SDS011;6031;50.220;10.122;2023-07-20T11:39:19;1.75;;;1.65;;
11943;SDS011;6031;50.220;10.122;2023-07-20T11:44:17;1.42;;;1.33;;
11943;SDS011;6031;50.220;10.122;2023-07-20T11:46:44;1.60;;;1.45;;
11943;SDS011;6031;50.220;10.122;2023-07-20T11:49:10;2.42;;;1.60;;
11943;SDS011;6031;50.220;10.122;2023-07-20T11:51:36;1.65;;;1.55;;
11943;SDS011;6031;50.220;10.122;2023-07-20T11:54:04;1.17;;;1.17;;
11943;SDS011;6031;50.220;10.122;2023-07-20T11:56:32;1.52;;;1.42;;
11943;SDS011;6031;50.220;10.122;2023-07-20T11:58:57;1.52;;;1.42;;
11943;SDS011;6031;50.220;10.122;2023-07-20T12:01:25;1.50;;;1.40;;
11943;SDS011;6031;50.220;10.122;2023-07-20T12:03:54;1.95;;;1.50;;
11943;SDS011;6031;50.220;10.122;2023-07-20T12:06:24;1.70;;;1.33;;
11943;SDS011;6031;50.220;10.122;2023-07-20T12:08:50;1.10;;;1.00;;
11943;SDS011;6031;50.220;10.122;2023-07-20T12:11:36;2.58;;;1.30;;
11943;SDS011;6031;50.220;10.122;2023-07-20T12:14:08;1.48;;;1.23;;
11943;SDS011;6031;50.220;10.122;2023-07-20T12:16:35;2.28;;;1.40;;
11943;SDS011;6031;50.220;10.122;2023-07-20T12:19:02;1.10;;;1.10;;
11943;SDS011;6031;50.220;10.122;2023-07-20T12:21:28;1.45;;;1.35;;
11943;SDS011;6031;50.220;10.122;2023-07-20T12:23:55;1.50;;;1.40;;
11943;SDS011;6031;50.220;10.122;2023-07-20T12:26:23;1.15;;;1.10;;
11943;SDS011;6031;50.220;10.122;2023-07-20T12:28:50;2.95;;;1.42;;
11943;SDS011;6031;50.220;10.122;2023-07-20T12:31:16;1.77;;;0.80;;
11943;SDS011;6031;50.220;10.122;2023-07-20T12:33:41;4.35;;;1.15;;
11943;SDS011;6031;50.220;10.122;2023-07-20T12:36:08;1.33;;;1.23;;
11943;SDS011;6031;50.220;10.122;2023-07-20T12:38:34;1.35;;;1.25;;
11943;SDS011;6031;50.220;10.122;2023-07-20T12:41:00;2.88;;;1.13;;
11943;SDS011;6031;50.220;10.122;2023-07-20T12:43:26;2.17;;;1.23;;
11943;SDS011;6031;50.220;10.122;2023-07-20T12:45:52;1.52;;;1.42;;
11943;SDS011;6031;50.220;10.122;2023-07-20T12:48:18;1.92;;;1.25;;
11943;SDS011;6031;50.220;10.122;2023-07-20T12:50:43;2.22;;;1.20;;
11943;SDS011;6031;50.220;10.122;2023-07-20T12:53:09;1.42;;;1.30;;
11943;SDS011;6031;50.220;10.122;2023-07-20T12:55:34;3.15;;;1.20;;
11943;SDS011;6031;50.220;10.122;2023-07-20T12:58:00;1.33;;;1.23;;
11943;SDS011;6031;50.220;10.122;2023-07-20T13:00:25;2.38;;;1.08;;
11943;SDS011;6031;50.220;10.122;2023-07-20T13:02:51;3.08;;;1.60;;
11943;SDS011;6031;50.220;10.122;2023-07-20T13:05:17;2.45;;;1.30;;
11943;SDS011;6031;50.220;10.122;2023-07-20T13:07:43;1.70;;;1.27;;
11943;SDS011;6031;50.220;10.122;2023-07-20T13:10:09;1.70;;;0.93;;
11943;SDS011;6031;50.220;10.122;2023-07-20T13:12:35;1.95;;;1.20;;
11943;SDS011;6031;50.220;10.122;2023-07-20T13:15:02;2.42;;;1.42;;
11943;SDS011;6031;50.220;10.122;2023-07-20T13:17:31;1.33;;;1.20;;
11943;SDS011;6031;50.220;10.122;2023-07-20T13:19:57;0.80;;;0.80;;
11943;SDS011;6031;50.220;10.122;2023-07-20T13:22:23;2.33;;;1.40;;
11943;SDS011;6031;50.220;10.122;2023-07-20T13:24:48;1.30;;;1.17;;
11943;SDS011;6031;50.220;10.122;2023-07-20T13:27:15;1.40;;;1.27;;
11943;SDS011;6031;50.220;10.122;2023-07-20T13:29:44;1.10;;;1.00;;
11943;SDS011;6031;50.220;10.122;2023-07-20T13:32:12;1.42;;;1.33;;
11943;SDS011;6031;50.220;10.122;2023-07-20T13:34:38;2.28;;;1.33;;
11943;SDS011;6031;50.220;10.122;2023-07-20T13:37:04;1.58;;;1.25;;
11943;SDS011;6031;50.220;10.122;2023-07-20T13:39:30;1.00;;;1.00;;
11943;SDS011;6031;50.220;10.122;2023-07-20T13:41:56;1.63;;;1.45;;
11943;SDS011;6031;50.220;10.122;2023-07-20T13:44:21;1.48;;;1.00;;
11943;SDS011;6031;50.220;10.122;2023-07-20T13:46:47;1.15;;;1.10;;
11943;SDS011;6031;50.220;10.122;2023-07-20T13:49:13;2.38;;;1.48;;
11943;SDS011;6031;50.220;10.122;2023-07-20T13:51:39;1.83;;;1.60;;
11943;SDS011;6031;50.220;10.122;2023-07-20T13:54:06;3.13;;;1.45;;
11943;SDS011;6031;50.220;10.122;2023-07-20T13:56:32;1.50;;;1.40;;
11943;SDS011;6031;50.220;10.122;2023-07-20T13:58:57;2.28;;;1.50;;
11943;SDS011;6031;50.220;10.122;2023-07-20T14:01:23;2.95;;;1.48;;
11943;SDS011;6031;50.220;10.122;2023-07-20T14:03:49;1.35;;;1.30;;
11943;SDS011;6031;50.220;10.122;2023-07-20T14:06:15;1.10;;;1.00;;
11943;SDS011;6031;50.220;10.122;2023-07-20T14:08:42;1.13;;;1.13;;
11943;SDS011;6031;50.220;10.122;2023-07-20T14:11:11;1.33;;;1.20;;
11943;SDS011;6031;50.220;10.122;2023-07-20T14:13:39;1.65;;;1.55;;
11943;SDS011;6031;50.220;10.122;2023-07-20T14:16:05;1.15;;;1.13;;
11943;SDS011;6031;50.220;10.122;2023-07-20T14:18:31;1.48;;;1.23;;
11943;SDS011;6031;50.220;10.122;2023-07-20T14:20:57;1.63;;;1.52;;
11943;SDS011;6031;50.220;10.122;2023-07-20T14:23:22;1.33;;;1.10;;
11943;SDS011;6031;50.220;10.122;2023-07-20T14:25:48;2.67;;;2.00;;
11943;SDS011;6031;50.220;10.122;2023-07-20T14:28:14;2.17;;;2.00;;
11943;SDS011;6031;50.220;10.122;2023-07-20T14:30:39;2.03;;;1.92;;
11943;SDS011;6031;50.220;10.122;2023-07-20T14:33:06;3.65;;;2.05;;
11943;SDS011;6031;50.220;10.122;2023-07-20T14:35:31;1.58;;;1.58;;
11943;SDS011;6031;50.220;10.122;2023-07-20T14:37:57;3.25;;;2.08;;
11943;SDS011;6031;50.220;10.122;2023-07-20T14:40:22;2.95;;;1.90;;
11943;SDS011;6031;50.220;10.122;2023-07-20T14:42:48;3.13;;;1.88;;
11943;SDS011;6031;50.220;10.122;2023-07-20T14:45:13;2.25;;;2.03;;
11943;SDS011;6031;50.220;10.122;2023-07-20T14:47:39;2.30;;;2.10;;
11943;SDS011;6031;50.220;10.122;2023-07-20T14:50:05;2.60;;;1.75;;
11943;SDS011;6031;50.220;10.122;2023-07-20T14:52:31;3.03;;;2.35;;
11943;SDS011;6031;50.220;10.122;2023-07-20T14:54:57;4.50;;;2.10;;
11943;SDS011;6031;50.220;10.122;2023-07-20T14:57:22;2.57;;;2.33;;
11943;SDS011;6031;50.220;10.122;2023-07-20T14:59:51;6.93;;;2.30;;
11943;SDS011;6031;50.220;10.122;2023-07-20T15:02:17;2.40;;;2.30;;
11943;SDS011;6031;50.220;10.122;2023-07-20T15:04:49;2.50;;;2.22;;
11943;SDS011;6031;50.220;10.122;2023-07-20T15:07:19;2.93;;;1.80;;